createdAt,value
2019-01-30T00:02:08.577Z,96126.55
2019-01-30T00:04:42.975Z,96117.64
2019-01-30T00:07:17.220Z,96109.23
2019-01-30T00:09:51.448Z,96104.23
2019-01-30T00:12:25.690Z,96100.09
2019-01-30T00:15:00.874Z,96104.70
2019-01-30T00:17:35.138Z,96099.45
2019-01-30T00:20:09.706Z,96097.09
2019-01-30T00:22:45.432Z,96089.97
2019-01-30T00:25:19.650Z,96085.95
2019-01-30T00:27:53.886Z,96082.55
2019-01-30T00:30:28.904Z,96075.66
2019-01-30T00:33:03.243Z,96074.14
2019-01-30T00:35:37.539Z,96061.20
2019-01-30T00:38:11.767Z,96057.55
2019-01-30T00:40:47.104Z,96056.39
2019-01-30T00:43:23.121Z,96043.58
2019-01-30T00:45:57.292Z,96044.80
2019-01-30T00:48:31.534Z,96046.09
2019-01-30T00:51:05.784Z,96048.98
2019-01-30T00:53:40.076Z,96042.84
2019-01-30T00:56:14.309Z,96046.92
2019-01-30T00:58:48.527Z,96047.47
2019-01-30T01:01:22.719Z,96041.66
2019-01-30T01:03:56.977Z,96027.67
2019-01-30T01:06:31.306Z,96031.27
2019-01-30T01:09:09.674Z,96024.31
2019-01-30T01:11:44.063Z,96022.80
2019-01-30T01:14:18.313Z,96018.23
2019-01-30T01:16:53.704Z,96016.93
2019-01-30T01:19:27.990Z,96007.98
2019-01-30T01:22:02.204Z,96005.09
2019-01-30T01:24:37.945Z,96002.59
2019-01-30T01:27:12.198Z,95996.91
2019-01-30T01:29:46.515Z,95995.27
2019-01-30T01:32:20.843Z,96002.35
2019-01-30T01:34:55.295Z,96005.07
2019-01-30T01:37:29.482Z,95996.89
2019-01-30T01:40:04.027Z,95984.30
2019-01-30T01:42:38.230Z,95976.22
2019-01-30T01:45:15.207Z,95978.60
2019-01-30T01:47:49.526Z,95974.18
2019-01-30T01:50:23.970Z,95979.38
2019-01-30T01:52:58.286Z,95978.39
2019-01-30T01:55:32.490Z,95972.12
2019-01-30T01:58:06.672Z,95973.50
2019-01-30T02:00:40.906Z,95968.93
2019-01-30T02:03:15.338Z,95965.81
2019-01-30T02:05:49.594Z,95949.20
2019-01-30T02:08:23.794Z,95956.31
2019-01-30T02:10:58.013Z,95952.02
2019-01-30T02:13:32.213Z,95952.41
2019-01-30T02:16:06.460Z,95943.95
2019-01-30T02:18:40.648Z,95941.27
2019-01-30T02:21:14.878Z,95933.73
2019-01-30T02:23:49.107Z,95933.61
2019-01-30T02:26:23.311Z,95925.42
2019-01-30T02:28:57.507Z,95919.80
2019-01-30T02:31:31.734Z,95916.42
2019-01-30T02:34:05.914Z,95906.02
2019-01-30T02:36:58.545Z,95901.45
2019-01-30T02:39:32.782Z,95894.19
2019-01-30T02:42:06.979Z,95892.09
2019-01-30T02:44:41.193Z,95896.55
2019-01-30T02:47:15.447Z,95881.31
2019-01-30T02:49:49.666Z,95879.55
2019-01-30T02:52:23.888Z,95863.81
2019-01-30T02:54:58.088Z,95863.95
2019-01-30T02:57:32.321Z,95859.58
2019-01-30T03:00:08.538Z,95852.60
2019-01-30T03:02:42.758Z,95852.31
2019-01-30T03:05:16.967Z,95850.21
2019-01-30T03:07:51.187Z,95857.07
2019-01-30T03:10:25.409Z,95852.59
2019-01-30T03:12:59.613Z,95848.98
2019-01-30T03:15:33.841Z,95850.59
2019-01-30T03:18:08.145Z,95847.37
2019-01-30T03:20:42.358Z,95855.50
2019-01-30T03:23:16.588Z,95842.31
2019-01-30T03:25:50.804Z,95842.03
2019-01-30T03:28:24.994Z,95851.39
2019-01-30T03:31:15.617Z,95847.37
2019-01-30T03:33:35.132Z,95852.31
2019-01-30T03:36:09.342Z,95850.59
2019-01-30T03:38:43.547Z,95852.52
2019-01-30T03:41:17.769Z,95849.16
2019-01-30T03:43:51.980Z,95850.94
2019-01-30T03:46:26.193Z,95848.97
2019-01-30T03:49:00.415Z,95849.28
2019-01-30T03:51:34.936Z,95853.52
2019-01-30T03:54:09.170Z,95845.58
2019-01-30T03:56:43.392Z,95842.50
2019-01-30T03:59:17.585Z,95847.64
2019-01-30T04:01:51.823Z,95842.89
2019-01-30T04:04:26.014Z,95835.50
2019-01-30T04:07:00.238Z,95832.37
2019-01-30T04:09:34.437Z,95835.34
2019-01-30T04:12:08.684Z,95830.84
2019-01-30T04:14:42.863Z,95821.27
2019-01-30T04:17:17.096Z,95823.78
2019-01-30T04:19:51.290Z,95825.34
2019-01-30T04:22:25.550Z,95822.08
2019-01-30T04:24:59.722Z,95820.91
2019-01-30T04:27:33.999Z,95826.98
2019-01-30T04:30:12.002Z,95826.03
2019-01-30T04:32:46.228Z,95824.67
2019-01-30T04:35:20.415Z,95812.53
2019-01-30T04:37:54.644Z,95819.47
2019-01-30T04:40:28.845Z,95808.37
2019-01-30T04:43:03.076Z,95806.03
2019-01-30T04:45:37.293Z,95808.53
2019-01-30T04:48:11.513Z,95797.05
2019-01-30T04:50:45.722Z,95790.48
2019-01-30T04:53:19.945Z,95799.88
2019-01-30T04:55:54.151Z,95797.36
2019-01-30T04:58:28.354Z,95793.59
2019-01-30T05:01:02.593Z,95778.02
2019-01-30T05:03:36.850Z,95776.01
2019-01-30T05:06:11.060Z,95775.36
2019-01-30T05:08:45.309Z,95774.64
2019-01-30T05:11:19.546Z,95780.06
2019-01-30T05:13:53.753Z,95771.09
2019-01-30T05:16:27.999Z,95776.66
2019-01-30T05:19:02.195Z,95776.87
2019-01-30T05:21:36.395Z,95776.78
2019-01-30T05:24:10.619Z,95784.50
2019-01-30T05:26:44.882Z,95788.73
2019-01-30T05:29:19.059Z,95793.09
2019-01-30T05:32:01.002Z,95787.29
2019-01-30T05:34:48.331Z,95792.48
2019-01-30T05:37:22.575Z,95792.20
2019-01-30T05:39:56.780Z,95797.16
2019-01-30T05:42:30.999Z,95784.11
2019-01-30T05:45:05.886Z,95783.11
2019-01-30T05:47:40.149Z,95780.71
2019-01-30T05:50:53.866Z,95771.34
2019-01-30T05:53:28.116Z,95769.90
2019-01-30T05:56:02.384Z,95765.08
2019-01-30T05:58:36.600Z,95756.95
2019-01-30T06:01:10.865Z,95762.75
2019-01-30T06:03:45.174Z,95767.87
2019-01-30T06:06:19.383Z,95765.66
2019-01-30T06:08:53.582Z,95766.23
2019-01-30T06:11:27.806Z,95764.55
2019-01-30T06:14:02.019Z,95765.94
2019-01-30T06:16:36.267Z,95757.33
2019-01-30T06:19:10.469Z,95759.84
2019-01-30T06:21:44.731Z,95762.03
2019-01-30T06:24:18.971Z,95763.77
2019-01-30T06:26:53.205Z,95765.26
2019-01-30T06:29:27.426Z,95765.26
2019-01-30T06:32:01.677Z,95767.04
2019-01-30T06:34:35.885Z,95769.66
2019-01-30T06:37:10.087Z,95777.48
2019-01-30T06:39:44.295Z,95770.89
2019-01-30T06:42:18.504Z,95760.11
2019-01-30T06:44:52.725Z,95765.41
2019-01-30T06:47:26.923Z,95772.95
2019-01-30T06:50:01.158Z,95775.27
2019-01-30T06:52:35.369Z,95770.91
2019-01-30T06:55:09.720Z,95772.09
2019-01-30T06:57:43.915Z,95773.14
2019-01-30T07:00:20.056Z,95763.98
2019-01-30T07:03:33.827Z,95762.51
2019-01-30T07:06:08.038Z,95767.70
2019-01-30T07:08:42.294Z,95767.20
2019-01-30T07:11:16.519Z,95774.84
2019-01-30T07:13:50.763Z,95782.28
2019-01-30T07:16:24.997Z,95790.72
2019-01-30T07:18:59.267Z,95776.91
2019-01-30T07:21:33.480Z,95786.28
2019-01-30T07:24:07.804Z,95785.10
2019-01-30T07:26:42.017Z,95793.14
2019-01-30T07:29:16.290Z,95804.25
2019-01-30T07:31:50.520Z,95800.16
2019-01-30T07:34:24.756Z,95801.79
2019-01-30T07:36:59.028Z,95802.29
2019-01-30T07:39:33.265Z,95810.20
2019-01-30T07:42:07.529Z,95812.34
2019-01-30T07:44:50.443Z,95822.48
2019-01-30T07:47:17.722Z,95823.73
2019-01-30T07:49:51.961Z,95825.23
2019-01-30T07:52:26.190Z,95829.23
2019-01-30T07:55:00.424Z,95831.15
2019-01-30T07:57:34.714Z,95840.23
2019-01-30T08:00:12.570Z,95847.13
2019-01-30T08:02:52.902Z,95848.09
2019-01-30T08:05:22.999Z,95846.76
2019-01-30T08:07:57.188Z,95844.09
2019-01-30T08:10:31.535Z,95841.44
2019-01-30T08:13:06.299Z,95839.17
2019-01-30T08:15:41.848Z,95840.32
2019-01-30T08:18:16.208Z,95842.07
2019-01-30T08:20:50.520Z,95841.91
2019-01-30T08:23:25.156Z,95845.86
2019-01-30T08:25:59.611Z,95846.36
2019-01-30T08:28:34.026Z,95843.06
2019-01-30T08:31:08.492Z,95849.19
2019-01-30T08:33:42.720Z,95844.20
2019-01-30T08:36:16.999Z,95842.40
2019-01-30T08:38:51.330Z,95850.29
2019-01-30T08:41:25.571Z,95850.99
2019-01-30T08:43:59.839Z,95841.45
2019-01-30T08:46:37.768Z,95845.03
2019-01-30T08:49:12.031Z,95834.91
2019-01-30T08:51:46.302Z,95840.06
2019-01-30T08:54:20.672Z,95840.56
2019-01-30T08:56:54.968Z,95842.62
2019-01-30T08:59:29.191Z,95850.66
2019-01-30T09:02:03.407Z,95848.80
2019-01-30T09:04:37.663Z,95850.05
2019-01-30T09:07:11.883Z,95853.23
2019-01-30T09:09:46.126Z,95855.74
2019-01-30T09:12:21.916Z,95859.72
2019-01-30T09:14:57.234Z,95851.49
2019-01-30T09:17:31.480Z,95861.13
2019-01-30T09:20:07.629Z,95860.03
2019-01-30T09:22:41.860Z,95861.99
2019-01-30T09:25:18.339Z,95861.09
2019-01-30T09:27:52.896Z,95866.75
2019-01-30T09:30:29.302Z,95869.78
2019-01-30T09:33:03.532Z,95873.42
2019-01-30T09:35:37.788Z,95867.11
2019-01-30T09:38:12.118Z,95868.06
2019-01-30T09:40:46.464Z,95870.64
2019-01-30T09:43:20.705Z,95871.59
2019-01-30T09:45:54.927Z,95871.99
2019-01-30T09:48:29.147Z,95871.09
2019-01-30T09:51:03.386Z,95879.66
2019-01-30T09:53:37.741Z,95879.92
2019-01-30T09:56:11.954Z,95886.00
2019-01-30T09:58:46.190Z,95881.74
2019-01-30T10:01:20.536Z,95877.63
2019-01-30T10:03:54.994Z,95884.08
2019-01-30T10:06:29.271Z,95881.41
2019-01-30T10:09:04.377Z,95882.75
2019-01-30T10:11:38.626Z,95884.80
2019-01-30T10:14:12.838Z,95886.16
2019-01-30T10:16:47.391Z,95883.86
2019-01-30T10:19:21.637Z,95888.37
2019-01-30T10:21:55.874Z,95888.38
2019-01-30T10:24:30.208Z,95889.64
2019-01-30T10:27:04.527Z,95886.92
2019-01-30T10:29:38.781Z,95888.38
2019-01-30T10:32:13.118Z,95886.05
2019-01-30T10:34:47.363Z,95886.09
2019-01-30T10:37:22.712Z,95885.09
2019-01-30T10:39:57.020Z,95878.28
2019-01-30T10:42:31.263Z,95874.57
2019-01-30T10:45:06.640Z,95876.84
2019-01-30T10:47:40.890Z,95877.73
2019-01-30T10:50:17.130Z,95877.30
2019-01-30T10:52:51.480Z,95876.05
2019-01-30T10:55:27.490Z,95876.45
2019-01-30T10:58:03.679Z,95880.81
2019-01-30T11:00:40.915Z,95876.73
2019-01-30T11:03:15.346Z,95872.27
2019-01-30T11:05:49.689Z,95869.41
2019-01-30T11:08:23.936Z,95875.84
2019-01-30T11:11:07.558Z,95883.39
2019-01-30T11:13:35.245Z,95873.30
2019-01-30T11:16:09.460Z,95881.12
2019-01-30T11:18:43.755Z,95877.86
2019-01-30T11:21:17.969Z,95877.02
2019-01-30T11:23:52.356Z,95872.58
2019-01-30T11:26:26.648Z,95873.27
2019-01-30T11:29:00.898Z,95869.43
2019-01-30T11:31:35.134Z,95866.31
2019-01-30T11:34:09.387Z,95877.84
2019-01-30T11:36:43.704Z,95877.70
2019-01-30T11:39:17.979Z,95871.05
2019-01-30T11:41:52.195Z,95877.59
2019-01-30T11:44:27.967Z,95885.57
2019-01-30T11:47:02.330Z,95884.84
2019-01-30T11:49:36.573Z,95886.44
2019-01-30T11:52:12.696Z,95883.03
2019-01-30T11:54:47.062Z,95877.16
2019-01-30T11:57:21.289Z,95890.80
2019-01-30T11:59:55.525Z,95887.78
2019-01-30T12:02:29.764Z,95884.87
2019-01-30T12:05:04.019Z,95889.07
2019-01-30T12:07:38.303Z,95891.12
2019-01-30T12:10:12.695Z,95891.06
2019-01-30T12:12:46.911Z,95894.34
2019-01-30T12:15:21.638Z,95901.60
2019-01-30T12:17:55.979Z,95909.02
2019-01-30T12:20:30.240Z,95902.88
2019-01-30T12:23:05.084Z,95903.88
2019-01-30T12:25:39.355Z,95902.61
2019-01-30T12:28:13.844Z,95914.69
2019-01-30T12:30:48.088Z,95905.52
2019-01-30T12:33:22.323Z,95901.98
2019-01-30T12:35:56.593Z,95910.54
2019-01-30T12:38:30.838Z,95913.84
2019-01-30T12:41:05.192Z,95913.30
2019-01-30T12:43:39.477Z,95907.51
2019-01-30T12:46:13.823Z,95922.11
2019-01-30T12:48:48.944Z,95906.92
2019-01-30T12:51:23.355Z,95923.34
2019-01-30T12:53:57.566Z,95917.27
2019-01-30T12:56:31.795Z,95920.92
2019-01-30T12:59:06.046Z,95922.69
2019-01-30T13:01:40.318Z,95925.67
2019-01-30T13:04:14.578Z,95929.47
2019-01-30T13:06:48.815Z,95921.88
2019-01-30T13:09:23.027Z,95921.13
2019-01-30T13:11:57.352Z,95923.89
2019-01-30T13:14:31.649Z,95924.09
2019-01-30T13:17:05.985Z,95928.52
2019-01-30T13:19:40.228Z,95934.19
2019-01-30T13:22:14.586Z,95940.33
2019-01-30T13:24:49.998Z,95951.92
2019-01-30T13:27:24.711Z,95947.89
2019-01-30T13:29:58.940Z,95956.93
2019-01-30T13:32:34.056Z,95952.99
2019-01-30T13:35:08.740Z,95952.33
2019-01-30T13:37:42.984Z,95953.09
2019-01-30T13:40:20.330Z,95958.84
2019-01-30T13:42:54.569Z,95962.23
2019-01-30T13:45:29.884Z,95963.54
2019-01-30T13:48:05.313Z,95971.00
2019-01-30T13:50:39.747Z,95973.44
2019-01-30T13:53:14.484Z,95963.80
2019-01-30T13:55:48.774Z,95970.31
2019-01-30T13:58:23.060Z,95978.55
2019-01-30T14:00:57.340Z,95968.94
2019-01-30T14:03:31.554Z,95972.28
2019-01-30T14:06:05.787Z,95983.89
2019-01-30T14:08:40.029Z,95983.03
2019-01-30T14:11:14.293Z,95979.19
2019-01-30T14:13:48.555Z,95986.61
2019-01-30T14:16:22.852Z,95990.34
2019-01-30T14:18:57.076Z,95990.28
2019-01-30T14:21:31.350Z,95994.92
2019-01-30T14:24:05.644Z,95994.23
2019-01-30T14:26:39.912Z,95987.09
2019-01-30T14:29:14.209Z,95997.88
2019-01-30T14:31:48.485Z,95996.61
2019-01-30T14:34:22.706Z,95992.87
2019-01-30T14:36:56.944Z,96010.47
2019-01-30T14:39:31.162Z,96023.10
2019-01-30T14:42:05.512Z,96018.15
2019-01-30T14:44:39.792Z,96015.37
2019-01-30T14:47:14.005Z,96027.28
2019-01-30T14:49:48.536Z,96031.77
2019-01-30T14:52:22.762Z,96042.11
2019-01-30T14:54:57.244Z,96039.02
2019-01-30T14:57:31.507Z,96048.23
2019-01-30T15:00:07.983Z,96036.91
2019-01-30T15:02:42.230Z,96047.93
2019-01-30T15:05:22.441Z,96054.41
2019-01-30T15:07:52.665Z,96051.64
2019-01-30T15:10:27.032Z,96067.37
2019-01-30T15:13:01.283Z,96073.79
2019-01-30T15:15:35.630Z,96080.48
2019-01-30T15:18:10.082Z,96089.19
2019-01-30T15:20:44.299Z,96093.06
2019-01-30T15:23:18.558Z,96094.48
2019-01-30T15:25:52.786Z,96099.48
2019-01-30T15:28:27.081Z,96101.77
2019-01-30T15:31:01.327Z,96099.14
2019-01-30T15:33:35.692Z,96112.45
2019-01-30T15:36:09.934Z,96107.38
2019-01-30T15:38:44.513Z,96115.44
2019-01-30T15:41:18.765Z,96127.10
2019-01-30T15:43:53.014Z,96120.87
2019-01-30T15:46:27.321Z,96130.81
2019-01-30T15:49:03.094Z,96130.39
2019-01-30T15:51:37.389Z,96135.33
2019-01-30T15:54:11.664Z,96140.86
2019-01-30T15:56:45.915Z,96145.03
2019-01-30T15:59:20.219Z,96146.20
2019-01-30T16:01:54.507Z,96157.91
2019-01-30T16:04:29.702Z,96152.52
2019-01-30T16:07:03.919Z,96161.54
2019-01-30T16:09:38.161Z,96162.02
2019-01-30T16:12:12.457Z,96168.43
2019-01-30T16:14:46.767Z,96165.77
2019-01-30T16:17:21.047Z,96181.37
2019-01-30T16:19:55.357Z,96166.73
2019-01-30T16:22:29.613Z,96180.13
2019-01-30T16:25:09.218Z,96188.61
2019-01-30T16:27:40.302Z,96183.66
2019-01-30T16:30:17.630Z,96193.27
2019-01-30T16:32:51.895Z,96197.69
2019-01-30T16:35:28.255Z,96190.03
2019-01-30T16:38:02.492Z,96205.81
2019-01-30T16:40:36.777Z,96214.02
2019-01-30T16:43:11.107Z,96211.85
2019-01-30T16:45:45.416Z,96218.16
2019-01-30T16:48:19.648Z,96228.72
2019-01-30T16:50:53.900Z,96236.34
2019-01-30T16:53:28.123Z,96239.05
2019-01-30T16:56:02.376Z,96236.94
2019-01-30T16:58:36.619Z,96244.73
2019-01-30T17:01:10.934Z,96249.32
2019-01-30T17:03:45.233Z,96250.87
2019-01-30T17:06:19.609Z,96254.38
2019-01-30T17:08:53.853Z,96261.13
2019-01-30T17:11:28.338Z,96263.33
2019-01-30T17:14:02.600Z,96266.83
2019-01-30T17:16:36.871Z,96273.64
2019-01-30T17:19:11.080Z,96271.59
2019-01-30T17:21:45.394Z,96283.92
2019-01-30T17:24:19.713Z,96285.30
2019-01-30T17:26:54.071Z,96283.13
2019-01-30T17:29:28.271Z,96281.41
2019-01-30T17:32:02.501Z,96290.46
2019-01-30T17:34:36.788Z,96293.09
2019-01-30T17:37:11.358Z,96300.38
2019-01-30T17:39:45.582Z,96303.27
2019-01-30T17:42:21.905Z,96313.80
2019-01-30T17:44:56.118Z,96317.98
2019-01-30T17:47:30.560Z,96325.41
2019-01-30T17:50:05.858Z,96323.20
2019-01-30T17:52:40.458Z,96329.20
2019-01-30T17:55:15.054Z,96331.15
2019-01-30T17:57:50.634Z,96333.56
2019-01-30T18:00:30.338Z,96330.24
2019-01-30T18:03:04.748Z,96330.06
2019-01-30T18:09:25.658Z,96340.92
2019-01-30T18:12:00.256Z,96339.66
2019-01-30T18:14:34.795Z,96336.08
2019-01-30T18:17:09.056Z,96349.00
2019-01-30T18:19:43.455Z,96346.11
2019-01-30T18:22:17.784Z,96349.00
2019-01-30T18:24:52.433Z,96359.92
2019-01-30T18:27:26.746Z,96364.58
2019-01-30T18:30:01.786Z,96364.97
2019-01-30T18:32:36.264Z,96373.57
2019-01-30T18:35:11.229Z,96384.42
2019-01-30T18:37:45.918Z,96378.59
2019-01-30T18:40:21.608Z,96384.66
2019-01-30T18:42:56.002Z,96391.95
2019-01-30T18:45:30.383Z,96387.12
2019-01-30T18:48:04.812Z,96392.69
2019-01-30T18:50:39.361Z,96395.08
2019-01-30T18:53:13.641Z,96395.49
2019-01-30T18:55:48.008Z,96401.02
2019-01-30T18:58:22.428Z,96397.34
2019-01-30T19:00:57.022Z,96395.49
2019-01-30T19:03:31.338Z,96401.62
2019-01-30T19:06:06.037Z,96396.05
2019-01-30T19:08:40.346Z,96400.54
2019-01-30T19:11:14.845Z,96402.87
2019-01-30T19:13:49.138Z,96402.67
2019-01-30T19:16:24.695Z,96406.66
2019-01-30T19:18:58.975Z,96406.16
2019-01-30T19:21:33.977Z,96407.81
2019-01-30T19:24:08.269Z,96402.31
2019-01-30T19:26:43.561Z,96403.84
2019-01-30T19:29:17.870Z,96404.94
2019-01-30T19:31:52.336Z,96405.63
2019-01-30T19:34:26.640Z,96405.02
2019-01-30T19:37:03.743Z,96407.36
2019-01-30T19:39:37.070Z,96408.53
2019-01-30T19:42:11.879Z,96406.79
2019-01-30T19:44:46.248Z,96404.73
2019-01-30T19:47:20.799Z,96406.09
2019-01-30T19:49:55.173Z,96410.28
2019-01-30T19:52:29.527Z,96422.20
2019-01-30T19:55:04.032Z,96420.63
2019-01-30T19:57:38.476Z,96418.89
2019-01-30T20:00:16.603Z,96419.37
2019-01-30T20:02:51.306Z,96424.69
2019-01-30T20:05:27.053Z,96418.97
2019-01-30T20:08:01.821Z,96416.84
2019-01-30T20:10:36.663Z,96415.55
2019-01-30T20:13:11.207Z,96419.80
2019-01-30T20:15:45.569Z,96415.08
2019-01-30T20:18:20.081Z,96419.72
2019-01-30T20:20:54.394Z,96419.14
2019-01-30T20:23:28.989Z,96415.75
2019-01-30T20:26:03.537Z,96418.47
2019-01-30T20:28:37.979Z,96414.49
2019-01-30T20:31:12.278Z,96419.92
2019-01-30T20:33:46.695Z,96417.20
2019-01-30T20:36:21.241Z,96421.13
2019-01-30T20:38:55.668Z,96432.16
2019-01-30T20:41:33.022Z,96431.48
2019-01-30T20:44:07.691Z,96437.05
2019-01-30T20:46:42.045Z,96434.01
2019-01-30T20:49:16.353Z,96435.73
2019-01-30T20:51:50.836Z,96432.02
2019-01-30T20:54:25.194Z,96436.58
2019-01-30T20:56:59.539Z,96442.20
2019-01-30T20:59:34.158Z,96444.98
2019-01-30T21:02:08.690Z,96436.72
2019-01-30T21:04:43.126Z,96450.27
2019-01-30T21:07:17.570Z,96451.98
2019-01-30T21:09:51.831Z,96445.91
2019-01-30T21:12:26.200Z,96446.79
2019-01-30T21:15:00.484Z,96449.25
2019-01-30T21:17:34.937Z,96440.80
2019-01-30T21:20:09.462Z,96441.84
2019-01-30T21:22:44.129Z,96447.42
2019-01-30T21:25:19.802Z,96452.45
2019-01-30T21:27:54.154Z,96447.98
2019-01-30T21:30:30.769Z,96446.36
2019-01-30T21:33:05.106Z,96450.53
2019-01-30T21:35:39.353Z,96450.14
2019-01-30T21:38:13.734Z,96453.06
2019-01-30T21:40:48.144Z,96447.13
2019-01-30T21:43:22.455Z,96444.19
2019-01-30T21:45:56.882Z,96446.05
2019-01-30T21:48:31.187Z,96444.31
2019-01-30T21:51:05.622Z,96447.96
2019-01-30T21:53:39.985Z,96440.59
2019-01-30T21:56:14.342Z,96438.12
2019-01-30T21:58:48.907Z,96436.44
2019-01-30T22:01:23.173Z,96441.21
2019-01-30T22:03:57.519Z,96440.82
2019-01-30T22:06:31.820Z,96439.61
2019-01-30T22:09:08.027Z,96440.81
2019-01-30T22:11:43.398Z,96440.21
2019-01-30T22:14:17.789Z,96437.09
2019-01-30T22:16:52.144Z,96436.43
2019-01-30T22:19:26.411Z,96437.17
2019-01-30T22:22:00.628Z,96437.73
2019-01-30T22:24:35.011Z,96434.41
2019-01-30T22:27:10.419Z,96439.70
2019-01-30T22:29:44.671Z,96444.05
2019-01-30T22:32:18.897Z,96446.05
2019-01-30T22:34:53.247Z,96452.56
2019-01-30T22:37:27.513Z,96452.05
2019-01-30T22:40:01.845Z,96453.78
2019-01-30T22:42:36.116Z,96452.42
2019-01-30T22:45:12.552Z,96455.55
2019-01-30T22:47:46.938Z,96451.05
2019-01-30T22:50:21.396Z,96446.12
2019-01-30T22:52:55.611Z,96443.87
2019-01-30T22:55:29.869Z,96447.12
2019-01-30T22:58:04.096Z,96441.42
2019-01-30T23:01:19.839Z,96434.37
2019-01-30T23:04:21.967Z,96440.10
2019-01-30T23:07:26.173Z,96435.14
2019-01-30T23:10:41.182Z,96435.40
2019-01-30T23:13:25.090Z,96439.22
2019-01-30T23:16:30.962Z,96429.22
2019-01-30T23:19:25.427Z,96433.95
2019-01-30T23:22:14.203Z,96432.88
2019-01-30T23:25:28.496Z,96434.28
2019-01-30T23:28:28.368Z,96441.30
2019-01-30T23:31:20.609Z,96433.85
2019-01-30T23:34:39.454Z,96429.60
2019-01-30T23:37:46.862Z,96422.31
2019-01-30T23:41:03.499Z,96421.05
2019-01-30T23:44:07.881Z,96415.98
2019-01-30T23:47:13.947Z,96413.55
2019-01-30T23:50:21.843Z,96416.21
2019-01-30T23:53:31.996Z,96418.13
2019-01-30T23:56:16.876Z,96410.83
2019-01-30T23:59:17.851Z,96406.15
